Time;durP1;ratioP1;P1;durP2;ratioP2;P2;SDS_P1;SDS_P2;PMS_P1;PMS_P2;Temp;Humidity;BMP_temperature;BMP_pressure;BME280_temperature;BME280_humidity;BME280_pressure;Samples;Min_cycle;Max_cycle;Signal;HPM_P1;HPM_P2
2023/12/14 00:00:51;;;;;;;42.17;15.33;;;;;;;9.13;67.68;98285.38;5115503;28;20175;-89
2023/12/14 00:03:16;;;;;;;35.97;15.20;;;;;;;9.16;67.80;98286.97;5097713;28;20524;-89
2023/12/14 00:05:42;;;;;;;33.57;15.23;;;;;;;9.23;67.38;98285.66;5114674;28;20196;-89
2023/12/14 00:08:09;;;;;;;36.87;15.57;;;;;;;9.19;67.30;98284.16;5097690;28;20175;-88
2023/12/14 00:10:35;;;;;;;37.40;16.23;;;;;;;9.16;67.33;98293.03;5097786;28;20334;-89
2023/12/14 00:13:04;;;;;;;31.73;14.77;;;;;;;9.09;67.28;98296.94;5097518;28;20282;-89
2023/12/14 00:15:29;;;;;;;40.03;15.57;;;;;;;9.10;67.43;98298.63;5115631;28;20239;-89
2023/12/14 00:17:56;;;;;;;29.70;14.17;;;;;;;9.01;67.20;98304.41;5115451;28;20319;-90
2023/12/14 00:23:23;;;;;;;28.93;14.03;;;;;;;9.00;67.58;98307.09;5091559;28;20183;-89
2023/12/14 00:25:50;;;;;;;30.23;14.20;;;;;;;9.01;67.41;98293.97;5096938;28;20190;-90
2023/12/14 00:28:17;;;;;;;31.43;14.70;;;;;;;9.00;67.41;98300.13;5096774;28;20234;-89
2023/12/14 00:30:54;;;;;;;31.90;14.60;;;;;;;9.01;67.66;98307.03;5097859;28;20199;-89
2023/12/14 00:33:34;;;;;;;31.00;14.00;;;;;;;9.02;67.45;98298.25;5115096;28;20175;-89
2023/12/14 00:36:00;;;;;;;27.87;12.37;;;;;;;9.05;67.20;98308.53;5097263;28;20201;-89
2023/12/14 00:38:27;;;;;;;33.03;14.13;;;;;;;8.99;67.11;98318.47;5098103;28;20286;-89
2023/12/14 00:40:54;;;;;;;32.83;15.47;;;;;;;8.92;67.57;98307.56;5082366;28;20606;-90
2023/12/14 00:43:21;;;;;;;37.00;15.57;;;;;;;8.95;67.75;98296.94;5076947;28;20197;-89
2023/12/14 00:45:48;;;;;;;29.10;13.40;;;;;;;8.93;67.62;98293.56;5076622;28;20191;-89
2023/12/14 00:48:15;;;;;;;29.77;12.97;;;;;;;8.88;67.71;98294.78;5094320;28;20186;-88
2023/12/14 00:50:41;;;;;;;30.77;14.10;;;;;;;8.85;67.87;98303.63;5096855;28;20639;-89
2023/12/14 00:53:06;;;;;;;33.57;14.57;;;;;;;8.80;68.00;98299.63;5114740;28;20258;-89
2023/12/14 00:55:33;;;;;;;33.47;14.27;;;;;;;8.76;68.06;98290.25;5097683;28;20191;-89
2023/12/14 00:58:00;;;;;;;31.10;14.40;;;;;;;8.77;68.19;98297.19;5096914;28;20622;-89
2023/12/14 01:00:25;;;;;;;31.60;13.67;;;;;;;8.75;68.37;98293.81;5096149;28;20182;-89
2023/12/14 01:02:52;;;;;;;32.30;13.93;;;;;;;8.78;68.41;98294.47;5114792;28;20171;-90
2023/12/14 01:05:19;;;;;;;32.57;14.70;;;;;;;8.75;68.11;98294.66;5096457;28;20177;-89
2023/12/14 01:07:45;;;;;;;32.57;13.50;;;;;;;8.73;68.28;98293.88;5114426;28;20186;-89
2023/12/14 01:10:11;;;;;;;31.77;13.63;;;;;;;8.62;68.44;98293.69;5096461;28;20180;-89
2023/12/14 01:12:37;;;;;;;30.17;13.23;;;;;;;8.61;67.90;98282.41;5114413;28;20269;-89
2023/12/14 01:15:03;;;;;;;30.90;14.43;;;;;;;8.64;68.19;98292.69;5114201;28;20269;-89
2023/12/14 01:17:29;;;;;;;34.93;15.10;;;;;;;8.62;68.68;98293.69;5093592;28;20658;-89
2023/12/14 01:19:55;;;;;;;30.77;14.33;;;;;;;8.61;68.43;98277.19;5093673;28;20191;-88
2023/12/14 01:22:22;;;;;;;35.00;13.43;;;;;;;8.63;68.39;98279.69;5094080;28;20175;-89
2023/12/14 01:24:48;;;;;;;31.17;13.10;;;;;;;8.59;68.35;98289.47;5103516;28;20188;-89
2023/12/14 01:27:14;;;;;;;42.33;13.70;;;;;;;8.39;68.03;98273.25;5088584;28;20184;-90
2023/12/14 01:29:39;;;;;;;33.17;14.50;;;;;;;8.31;68.27;98257.19;5092641;28;20271;-88
2023/12/14 01:32:06;;;;;;;43.37;16.37;;;;;;;8.23;68.56;98285.50;5093843;28;20220;-90
2023/12/14 01:34:33;;;;;;;46.77;17.90;;;;;;;8.22;68.38;98286.41;5093609;28;20207;-89
2023/12/14 01:36:59;;;;;;;27.50;13.83;;;;;;;8.21;68.86;98256.00;5075576;28;20184;-89
2023/12/14 01:39:25;;;;;;;35.07;14.27;;;;;;;8.09;69.11;98262.78;5075334;28;20215;-88
2023/12/14 01:41:51;;;;;;;34.60;14.37;;;;;;;8.20;68.85;98255.16;5075559;28;20236;-89
2023/12/14 01:44:18;;;;;;;33.47;14.77;;;;;;;8.16;68.81;98242.38;5075879;28;20590;-89
2023/12/14 01:46:45;;;;;;;27.57;13.20;;;;;;;8.23;68.40;98246.34;5093471;28;20182;-89
2023/12/14 01:49:10;;;;;;;34.63;13.77;;;;;;;8.24;68.89;98237.56;5093133;28;20190;-89
2023/12/14 01:51:36;;;;;;;33.57;14.07;;;;;;;8.19;69.11;98240.44;5093161;28;20200;-88
2023/12/14 01:54:03;;;;;;;34.70;14.23;;;;;;;8.21;68.87;98235.13;5093578;28;20173;-89
2023/12/14 01:56:30;;;;;;;35.43;14.23;;;;;;;8.21;69.03;98224.69;5092585;28;20182;-89
2023/12/14 01:58:56;;;;;;;38.87;15.87;;;;;;;8.21;69.21;98235.13;5075580;28;20180;-89
2023/12/14 02:01:40;;;;;;;37.70;16.07;;;;;;;8.17;69.19;98234.47;5093171;28;20537;-90
2023/12/14 02:04:07;;;;;;;27.60;12.90;;;;;;;8.19;69.46;98234.38;5076202;28;20612;-89
2023/12/14 02:06:34;;;;;;;36.23;15.80;;;;;;;8.23;69.17;98238.50;5075292;28;20345;-89
2023/12/14 02:08:59;;;;;;;42.93;16.53;;;;;;;8.28;69.50;98236.50;5075075;28;20305;-89
2023/12/14 02:11:25;;;;;;;36.30;15.03;;;;;;;8.29;69.34;98235.56;5093442;28;20355;-89
2023/12/14 02:13:50;;;;;;;31.83;14.70;;;;;;;8.27;69.50;98240.88;5092915;28;20626;-89
2023/12/14 02:16:19;;;;;;;29.73;13.17;;;;;;;8.28;69.04;98234.72;5095496;28;20236;-89
2023/12/14 02:18:47;;;;;;;33.83;14.03;;;;;;;8.36;69.02;98235.13;5113520;28;20187;-89
2023/12/14 02:21:12;;;;;;;31.73;14.10;;;;;;;8.42;69.21;98240.00;5113492;28;20177;-88
2023/12/14 02:23:45;;;;;;;30.67;13.60;;;;;;;8.40;68.94;98243.63;5112547;28;20551;-89
2023/12/14 02:26:16;;;;;;;24.37;12.83;;;;;;;8.41;69.01;98232.25;5095389;28;20188;-89
2023/12/14 02:28:42;;;;;;;30.50;13.37;;;;;;;8.38;68.87;98222.84;5095457;28;20222;-88
2023/12/14 02:31:09;;;;;;;27.20;13.13;;;;;;;8.39;68.89;98228.88;5113176;28;20220;-89
2023/12/14 02:33:35;;;;;;;24.50;11.57;;;;;;;8.41;68.79;98227.84;5095461;28;20267;-89
2023/12/14 02:36:03;;;;;;;23.83;11.37;;;;;;;8.41;68.52;98224.44;5095304;28;20209;-89
2023/12/14 02:38:30;;;;;;;22.73;10.97;;;;;;;8.38;68.87;98230.69;5095588;28;20213;-89
2023/12/14 02:40:55;;;;;;;28.70;12.07;;;;;;;8.46;68.64;98222.38;5095012;28;20250;-90
2023/12/14 02:43:23;;;;;;;27.03;11.03;;;;;;;8.43;68.50;98219.94;5095158;28;20182;-90
2023/12/14 02:45:50;;;;;;;25.03;11.23;;;;;;;8.45;68.81;98233.75;5095457;28;20257;-89
2023/12/14 02:48:15;;;;;;;30.23;11.67;;;;;;;8.45;68.76;98238.97;5112934;28;20219;-89
2023/12/14 02:50:41;;;;;;;28.50;11.93;;;;;;;8.44;68.73;98226.84;5097335;28;20195;-89
2023/12/14 02:53:08;;;;;;;23.57;10.77;;;;;;;8.38;69.03;98222.84;5117487;28;20258;-90
2023/12/14 02:55:33;;;;;;;25.70;10.93;;;;;;;8.37;68.36;98241.19;5096779;28;20207;-89
2023/12/14 02:58:00;;;;;;;20.73;9.77;;;;;;;8.39;69.02;98237.56;5078798;28;20214;-89
2023/12/14 03:00:26;;;;;;;25.50;11.27;;;;;;;8.41;68.69;98237.47;5079409;28;20633;-89
2023/12/14 03:02:52;;;;;;;28.97;12.07;;;;;;;8.39;69.35;98228.88;5096406;28;20179;-88
2023/12/14 03:05:18;;;;;;;27.00;12.53;;;;;;;8.46;69.08;98238.06;5096890;28;20217;-89
2023/12/14 03:07:43;;;;;;;26.20;12.20;;;;;;;8.47;69.23;98240.56;5104359;28;20182;-89
2023/12/14 03:10:10;;;;;;;29.20;11.00;;;;;;;8.53;68.63;98234.16;5098858;28;20223;-89
2023/12/14 03:12:36;;;;;;;22.07;10.40;;;;;;;8.54;68.76;98228.81;5098638;28;20648;-89
2023/12/14 03:15:03;;;;;;;24.33;12.13;;;;;;;8.46;68.75;98231.03;5098448;28;20175;-89
2023/12/14 03:17:29;;;;;;;23.63;10.43;;;;;;;8.40;68.55;98225.34;5098510;28;20632;-89
2023/12/14 03:19:56;;;;;;;41.00;15.47;;;;;;;8.41;68.92;98224.44;5098491;28;20268;-89
2023/12/14 03:22:23;;;;;;;37.30;13.80;;;;;;;8.41;68.54;98237.47;5098465;28;20273;-89
2023/12/14 03:24:50;;;;;;;23.90;10.60;;;;;;;8.43;68.64;98233.84;5116639;28;20179;-89
2023/12/14 03:27:17;;;;;;;18.23;10.40;;;;;;;8.41;68.50;98227.84;5098287;28;20281;-89
2023/12/14 03:29:42;;;;;;;25.37;11.00;;;;;;;8.35;68.37;98222.16;5098053;28;20186;-89
2023/12/14 03:32:07;;;;;;;27.87;11.57;;;;;;;8.31;68.74;98231.09;5098151;28;20200;-88
2023/12/14 03:34:34;;;;;;;29.07;13.33;;;;;;;8.24;68.61;98235.81;5098588;28;20531;-89
2023/12/14 03:37:01;;;;;;;30.70;15.13;;;;;;;8.33;68.30;98224.03;5098203;28;20212;-89
2023/12/14 03:39:28;;;;;;;29.73;13.23;;;;;;;8.31;68.69;98231.94;5098042;28;20195;-89
2023/12/14 03:41:55;;;;;;;28.20;12.10;;;;;;;8.24;68.50;98227.13;5100352;28;20263;-89
2023/12/14 03:44:23;;;;;;;23.90;11.70;;;;;;;8.33;68.73;98231.88;5086984;28;20694;-89
2023/12/14 03:46:50;;;;;;;24.30;12.07;;;;;;;8.33;68.30;98232.69;5116055;28;20566;-89
2023/12/14 03:49:17;;;;;;;25.97;12.00;;;;;;;8.38;68.66;98242.88;5098242;28;20198;-89
2023/12/14 03:51:43;;;;;;;28.57;12.27;;;;;;;8.31;69.06;98234.53;5115630;28;20283;-89
2023/12/14 03:54:08;;;;;;;21.93;10.53;;;;;;;8.35;68.76;98236.06;5115609;28;20225;-89
2023/12/14 03:56:34;;;;;;;27.47;12.27;;;;;;;8.29;68.55;98227.72;5097643;28;20701;-89
2023/12/14 03:58:59;;;;;;;26.57;11.57;;;;;;;8.29;68.60;98230.34;5091920;28;20184;-89
2023/12/14 04:01:25;;;;;;;31.57;12.17;;;;;;;8.24;69.00;98229.72;5095075;28;20192;-89
2023/12/14 04:03:52;;;;;;;27.07;12.87;;;;;;;8.16;68.82;98229.34;5095218;28;20180;-89
2023/12/14 04:06:18;;;;;;;28.37;13.27;;;;;;;8.22;68.83;98240.28;5084152;28;20210;-89
2023/12/14 04:08:44;;;;;;;28.00;13.30;;;;;;;8.22;69.38;98247.25;5115437;28;20653;-88
2023/12/14 04:11:11;;;;;;;26.80;12.93;;;;;;;8.22;69.06;98255.94;5115774;28;20261;-89
2023/12/14 04:13:38;;;;;;;34.53;13.87;;;;;;;8.24;69.14;98255.84;5115334;28;20232;-89
2023/12/14 04:16:05;;;;;;;31.37;13.83;;;;;;;8.28;69.00;98246.94;5097443;28;20605;-89
2023/12/14 04:18:30;;;;;;;31.77;14.10;;;;;;;8.28;69.43;98252.19;5115190;28;20596;-89
2023/12/14 04:20:56;;;;;;;39.00;17.90;;;;;;;8.31;69.25;98251.97;5097253;28;20743;-90
2023/12/14 04:23:22;;;;;;;35.60;15.93;;;;;;;8.20;68.97;98228.25;5114350;28;20267;-89
2023/12/14 04:25:48;;;;;;;35.57;16.90;;;;;;;8.11;69.14;98233.97;5115150;28;20195;-89
2023/12/14 04:28:15;;;;;;;33.87;18.50;;;;;;;8.12;69.20;98240.88;5115150;28;20186;-89
2023/12/14 04:30:40;;;;;;;32.93;15.10;;;;;;;8.06;68.87;98249.91;5114901;28;20603;-89
2023/12/14 04:33:07;;;;;;;38.50;18.50;;;;;;;7.94;69.06;98242.75;5097320;28;20682;-89
2023/12/14 04:35:36;;;;;;;40.97;22.30;;;;;;;7.96;69.21;98246.13;5097139;28;20186;-89
2023/12/14 04:38:02;;;;;;;46.33;25.10;;;;;;;7.83;68.66;98243.38;5115172;28;20266;-88
2023/12/14 04:40:29;;;;;;;37.63;19.37;;;;;;;7.84;69.17;98246.81;5115027;28;20182;-89
2023/12/14 04:42:54;;;;;;;39.00;19.93;;;;;;;7.88;68.38;98249.19;5115030;28;20182;-90
2023/12/14 04:45:20;;;;;;;39.43;20.03;;;;;;;7.88;68.53;98236.13;5115232;28;20182;-89
2023/12/14 04:47:45;;;;;;;38.07;19.20;;;;;;;7.89;68.71;98232.56;5096703;28;20622;-89
2023/12/14 04:50:12;;;;;;;39.77;19.53;;;;;;;7.93;68.30;98221.06;5096761;28;20186;-89
2023/12/14 04:52:38;;;;;;;41.03;20.40;;;;;;;7.96;68.09;98223.50;5096711;28;20243;-90
2023/12/14 04:55:04;;;;;;;43.47;20.03;;;;;;;7.93;68.03;98226.28;5096731;28;20179;-89
2023/12/14 04:57:29;;;;;;;37.23;19.47;;;;;;;7.97;67.82;98227.78;5096529;28;20190;-87
2023/12/14 04:59:55;;;;;;;38.40;21.10;;;;;;;7.90;67.39;98236.88;5114598;28;20182;-89
2023/12/14 05:02:21;;;;;;;36.60;17.70;;;;;;;7.85;67.49;98245.88;5096368;28;20196;-88
2023/12/14 05:04:48;;;;;;;33.83;19.53;;;;;;;7.95;67.48;98247.91;5097196;28;20177;-89
2023/12/14 05:07:15;;;;;;;36.30;18.20;;;;;;;7.97;67.52;98243.44;5114109;28;20202;-89
2023/12/14 05:09:40;;;;;;;35.17;17.33;;;;;;;7.94;67.58;98242.75;5112311;28;20204;-89
2023/12/14 05:12:07;;;;;;;38.23;16.27;;;;;;;7.92;67.23;98242.00;5095659;28;20294;-89
2023/12/14 05:14:34;;;;;;;35.37;14.87;;;;;;;7.87;67.48;98238.81;5114406;28;20191;-89
2023/12/14 05:17:00;;;;;;;33.87;15.37;;;;;;;7.79;67.30;98220.97;5114551;28;20234;-89
2023/12/14 05:19:25;;;;;;;43.30;16.77;;;;;;;7.78;67.26;98241.94;5113016;28;20547;-89
2023/12/14 05:21:54;;;;;;;32.93;14.07;;;;;;;7.79;67.29;98243.63;5096316;28;20228;-89
2023/12/14 05:24:19;;;;;;;27.03;13.30;;;;;;;7.68;67.92;98236.38;5096736;28;20183;-89
2023/12/14 05:26:46;;;;;;;23.47;12.60;;;;;;;7.71;68.07;98225.78;5096179;28;20515;-88
2023/12/14 05:29:11;;;;;;;29.00;13.77;;;;;;;7.74;67.87;98211.72;5112181;28;20196;-88
2023/12/14 05:31:38;;;;;;;25.90;12.80;;;;;;;7.73;67.95;98208.28;5095475;28;20203;-89
2023/12/14 05:34:05;;;;;;;26.30;12.60;;;;;;;7.70;68.01;98211.06;5112538;28;20259;-89
2023/12/14 05:36:32;;;;;;;25.73;12.57;;;;;;;7.70;68.19;98218.91;5112200;28;20177;-89
2023/12/14 05:38:58;;;;;;;28.73;11.43;;;;;;;7.70;68.56;98218.91;5113431;28;20202;-89
2023/12/14 05:41:25;;;;;;;24.77;11.87;;;;;;;7.70;68.39;98205.88;5113139;28;20178;-89
2023/12/14 05:43:51;;;;;;;28.23;13.23;;;;;;;7.72;68.72;98208.38;5113116;28;20178;-89
2023/12/14 05:46:23;;;;;;;22.17;10.50;;;;;;;7.72;68.63;98204.00;5095834;28;20581;-89
2023/12/14 05:48:50;;;;;;;24.97;12.13;;;;;;;7.81;67.93;98210.44;5114428;28;20180;-89
2023/12/14 05:51:37;;;;;;;28.83;12.27;;;;;;;7.80;68.56;98221.84;5095683;28;20204;-89
2023/12/14 05:54:04;;;;;;;26.23;12.60;;;;;;;7.69;68.32;98217.22;5113848;28;20196;-89
2023/12/14 05:56:30;;;;;;;24.27;12.03;;;;;;;7.56;68.25;98218.81;5108047;28;20260;-88
2023/12/14 05:58:56;;;;;;;22.73;11.47;;;;;;;7.49;69.00;98208.81;5093161;28;20656;-89
2023/12/14 06:01:23;;;;;;;24.57;10.77;;;;;;;7.58;69.05;98213.50;5107849;28;20323;-88
2023/12/14 06:03:50;;;;;;;28.60;12.73;;;;;;;7.56;68.98;98218.81;5114064;28;20185;-89
2023/12/14 06:06:16;;;;;;;27.97;12.07;;;;;;;7.62;68.81;98215.88;5113628;28;20264;-88
2023/12/14 06:08:43;;;;;;;28.73;12.17;;;;;;;7.65;68.91;98227.91;5095678;28;20214;-89
2023/12/14 06:11:10;;;;;;;31.27;13.87;;;;;;;7.61;69.75;98245.47;5113753;28;20200;-89
2023/12/14 06:13:35;;;;;;;26.50;12.37;;;;;;;7.41;70.06;98237.91;5113365;28;20188;-89
2023/12/14 06:16:01;;;;;;;27.70;12.90;;;;;;;7.46;69.93;98222.84;5095344;28;20240;-89
2023/12/14 06:18:28;;;;;;;37.13;15.73;;;;;;;7.30;70.55;98217.63;5095929;28;20165;-89
2023/12/14 06:20:55;;;;;;;28.40;13.10;;;;;;;7.34;70.54;98236.53;5113623;28;20246;-89
2023/12/14 06:23:20;;;;;;;31.47;13.63;;;;;;;7.23;71.39;98247.53;5095277;28;20190;-89
2023/12/14 06:25:47;;;;;;;43.30;15.27;;;;;;;7.35;71.46;98251.25;5098086;28;20181;-89
2023/12/14 06:28:14;;;;;;;40.10;17.00;;;;;;;7.44;71.18;98253.38;5117565;28;20172;-89
2023/12/14 06:30:41;;;;;;;36.97;15.63;;;;;;;7.47;70.75;98258.41;5117471;28;20206;-89
2023/12/14 06:33:07;;;;;;;28.80;14.63;;;;;;;7.40;71.17;98259.66;5118008;28;20182;-89
2023/12/14 06:35:33;;;;;;;60.87;26.90;;;;;;;7.30;71.81;98261.94;5117243;28;20586;-88
2023/12/14 06:38:00;;;;;;;52.73;21.47;;;;;;;7.41;71.43;98263.97;5117368;28;20180;-89
2023/12/14 06:40:26;;;;;;;108.43;39.40;;;;;;;7.48;71.23;98261.88;5117378;28;20503;-89
2023/12/14 06:43:19;;;;;;;54.53;24.10;;;;;;;7.60;71.05;98264.63;5098905;28;20181;-89
2023/12/14 06:46:26;;;;;;;47.23;19.30;;;;;;;7.64;71.70;98267.94;5090896;28;20277;-89
2023/12/14 06:48:53;;;;;;;37.43;18.07;;;;;;;7.61;71.26;98271.56;5099144;28;20248;-89
2023/12/14 06:51:19;;;;;;;41.50;18.43;;;;;;;7.61;71.56;98276.78;5099413;28;20658;-89
2023/12/14 06:53:46;;;;;;;40.53;16.83;;;;;;;7.72;71.44;98274.44;5116977;28;20191;-89
2023/12/14 06:56:12;;;;;;;33.00;16.13;;;;;;;7.82;71.57;98275.59;5117055;28;20260;-90
2023/12/14 06:58:42;;;;;;;28.70;15.07;;;;;;;7.91;71.41;98266.44;5098831;28;20180;-89
2023/12/14 07:01:14;;;;;;;36.10;15.67;;;;;;;8.04;70.70;98255.19;5099443;28;20181;-88
2023/12/14 07:03:43;;;;;;;36.77;16.07;;;;;;;7.94;72.01;98285.34;5115816;28;20185;-90
2023/12/14 07:06:13;;;;;;;33.60;16.90;;;;;;;7.85;72.77;98279.81;5116875;28;20176;-89
2023/12/14 07:08:41;;;;;;;44.03;20.40;;;;;;;7.84;72.74;98284.16;5098565;28;20186;-88
2023/12/14 07:11:11;;;;;;;47.63;21.47;;;;;;;7.86;72.79;98287.53;5098745;28;20268;-89
2023/12/14 07:13:38;;;;;;;129.67;40.10;;;;;;;7.91;72.46;98282.91;5116808;28;20188;-89
2023/12/14 07:16:08;;;;;;;64.43;32.07;;;;;;;8.00;72.23;98279.78;5116588;28;20177;-89
2023/12/14 07:18:41;;;;;;;51.73;22.87;;;;;;;8.07;72.42;98279.47;5116533;28;20205;-89
2023/12/14 07:21:08;;;;;;;50.10;22.30;;;;;;;8.21;72.26;98271.66;5098557;28;20169;-89
2023/12/14 07:23:35;;;;;;;49.43;21.53;;;;;;;8.11;72.43;98267.91;5116329;28;20643;-89
2023/12/14 07:26:00;;;;;;;49.63;20.40;;;;;;;8.19;72.03;98274.38;5098275;28;20184;-89
2023/12/14 07:28:28;;;;;;;54.37;24.43;;;;;;;8.11;72.19;98265.28;5108746;28;20711;-89
2023/12/14 07:30:54;;;;;;;61.77;24.97;;;;;;;8.17;72.69;98278.84;5116032;28;20265;-89
2023/12/14 07:33:21;;;;;;;68.27;30.00;;;;;;;8.15;72.93;98290.31;5098440;28;20180;-88
2023/12/14 07:35:46;;;;;;;59.37;27.57;;;;;;;8.27;73.32;98292.25;5115508;28;20572;-89
2023/12/14 07:38:13;;;;;;;87.50;38.80;;;;;;;8.33;73.29;98290.13;5099074;28;20274;-89
2023/12/14 07:40:40;;;;;;;53.27;24.67;;;;;;;8.42;73.44;98278.31;5116111;28;20186;-89
2023/12/14 07:43:08;;;;;;;61.63;24.87;;;;;;;8.53;73.58;98268.09;5098595;28;20175;-89
2023/12/14 07:45:34;;;;;;;59.63;26.07;;;;;;;8.58;72.88;98274.75;5098525;28;20176;-89
2023/12/14 07:48:01;;;;;;;60.57;27.17;;;;;;;8.56;73.27;98271.38;5102063;28;20187;-88
2023/12/14 07:50:28;;;;;;;75.20;32.63;;;;;;;8.47;73.00;98271.91;5077781;28;20556;-89
2023/12/14 07:52:55;;;;;;;74.33;32.47;;;;;;;8.62;73.22;98267.56;5095519;28;20174;-89
2023/12/14 07:55:22;;;;;;;59.00;25.50;;;;;;;8.73;73.28;98269.53;5096428;28;20179;-89
2023/12/14 07:57:49;;;;;;;44.43;20.23;;;;;;;8.85;72.91;98264.44;5097919;28;20187;-89
2023/12/14 08:00:16;;;;;;;43.70;21.60;;;;;;;8.82;73.58;98259.41;5097646;28;20637;-89
2023/12/14 08:02:43;;;;;;;47.93;22.90;;;;;;;8.94;73.56;98266.50;5115868;28;20619;-89
2023/12/14 08:05:10;;;;;;;67.50;30.40;;;;;;;8.89;74.10;98275.53;5114879;28;20248;-89
2023/12/14 08:07:37;;;;;;;64.37;32.23;;;;;;;8.98;74.17;98275.00;5115736;28;20190;-88
2023/12/14 08:10:04;;;;;;;69.13;29.13;;;;;;;9.10;74.43;98269.88;5098001;28;20179;-89
2023/12/14 08:12:30;;;;;;;68.93;30.47;;;;;;;9.21;74.17;98261.38;5097834;28;20195;-90
2023/12/14 08:14:55;;;;;;;65.33;30.73;;;;;;;9.19;74.03;98258.88;5097263;28;20196;-90
2023/12/14 08:17:21;;;;;;;57.30;29.60;;;;;;;9.33;74.03;98268.47;5115399;28;20232;-89
2023/12/14 08:20:14;;;;;;;63.07;29.63;;;;;;;9.36;74.13;98260.44;5114691;28;20184;-89
2023/12/14 08:22:44;;;;;;;69.07;31.87;;;;;;;9.49;74.07;98265.75;5096241;28;20187;-88
2023/12/14 08:25:14;;;;;;;66.13;30.30;;;;;;;9.66;73.88;98252.47;5115321;28;20565;-89
2023/12/14 08:27:40;;;;;;;53.50;25.57;;;;;;;9.66;73.76;98258.56;5115795;28;20174;-89
2023/12/14 08:30:08;;;;;;;47.93;23.97;;;;;;;9.71;73.51;98255.63;5097706;28;20176;-89
2023/12/14 08:32:35;;;;;;;53.17;25.20;;;;;;;9.81;73.38;98254.09;5115117;28;20187;-89
2023/12/14 08:35:03;;;;;;;59.27;25.17;;;;;;;9.91;71.96;98247.34;5097573;28;20556;-89
2023/12/14 08:37:29;;;;;;;58.83;25.90;;;;;;;10.07;71.74;98247.19;5097281;28;20629;-89
2023/12/14 08:39:56;;;;;;;58.53;27.33;;;;;;;10.11;71.82;98251.31;5097090;28;20171;-89
2023/12/14 08:42:23;;;;;;;53.30;25.33;;;;;;;10.19;72.34;98262.16;5096905;28;20176;-89
2023/12/14 08:44:50;;;;;;;39.33;20.00;;;;;;;10.30;73.22;98257.91;5096945;28;20183;-90
2023/12/14 08:47:17;;;;;;;43.77;21.03;;;;;;;10.37;72.33;98255.72;5096310;28;20186;-89
2023/12/14 08:49:43;;;;;;;41.87;20.30;;;;;;;10.40;72.84;98256.34;5115077;28;20232;-90
2023/12/14 08:52:11;;;;;;;47.10;19.37;;;;;;;10.57;72.00;98242.16;5096815;28;20278;-91
2023/12/14 08:54:38;;;;;;;39.07;18.43;;;;;;;10.46;70.00;98262.97;5096784;28;20211;-90
2023/12/14 08:57:04;;;;;;;39.47;18.23;;;;;;;10.38;69.99;98267.88;5096811;28;20611;-91
2023/12/14 08:59:30;;;;;;;42.83;18.93;;;;;;;10.32;70.49;98263.06;5097739;28;20258;-90
2023/12/14 09:01:56;;;;;;;35.30;17.77;;;;;;;10.26;70.44;98260.81;5096549;28;20267;-91
2023/12/14 09:04:23;;;;;;;49.00;18.83;;;;;;;10.28;70.94;98261.56;5114895;28;20349;-90
2023/12/14 09:06:50;;;;;;;42.23;21.37;;;;;;;10.35;71.03;98274.16;5114582;28;20187;-89
2023/12/14 09:09:18;;;;;;;40.37;18.23;;;;;;;10.45;70.45;98264.75;5114053;28;20500;-90
2023/12/14 09:11:45;;;;;;;35.40;18.87;;;;;;;10.54;70.41;98257.22;5114203;28;20692;-89
2023/12/14 09:14:10;;;;;;;40.63;18.07;;;;;;;10.46;70.04;98265.59;5089402;28;20263;-90
2023/12/14 09:16:36;;;;;;;45.70;19.00;;;;;;;10.60;69.44;98255.03;5076345;28;20267;-89
2023/12/14 09:19:03;;;;;;;38.17;17.60;;;;;;;10.66;69.61;98262.50;5056094;28;20601;-89
2023/12/14 09:21:30;;;;;;;36.00;15.93;;;;;;;10.70;68.34;98260.50;5066283;28;20181;-89
2023/12/14 09:23:55;;;;;;;37.33;16.57;;;;;;;10.66;68.94;98267.75;5082642;28;20271;-90
2023/12/14 09:26:21;;;;;;;30.50;16.50;;;;;;;10.71;69.08;98268.28;5097218;28;20590;-89
2023/12/14 09:28:47;;;;;;;35.20;17.13;;;;;;;10.75;68.54;98266.28;5073597;28;20184;-90
2023/12/14 09:31:15;;;;;;;37.47;17.27;;;;;;;10.69;68.13;98251.78;5079930;28;20260;-90
2023/12/14 09:33:42;;;;;;;45.97;20.90;;;;;;;10.81;67.60;98258.00;5102800;28;20180;-89
2023/12/14 09:36:08;;;;;;;42.43;17.67;;;;;;;10.84;67.80;98266.50;5093502;28;20187;-90
2023/12/14 09:38:36;;;;;;;39.17;18.60;;;;;;;10.91;67.62;98254.66;5075694;28;20638;-89
2023/12/14 09:41:03;;;;;;;31.97;15.67;;;;;;;10.98;66.92;98231.47;5075547;28;20172;-89
2023/12/14 09:43:28;;;;;;;38.77;18.67;;;;;;;10.95;66.91;98250.06;5093491;28;20703;-89
2023/12/14 09:45:55;;;;;;;37.47;17.93;;;;;;;11.00;67.11;98227.81;5093462;28;20168;-89
2023/12/14 09:48:24;;;;;;;38.53;17.83;;;;;;;11.04;66.87;98229.28;5093589;28;20172;-90
2023/12/14 09:50:51;;;;;;;41.50;18.40;;;;;;;11.04;66.88;98228.44;5093289;28;20282;-90
2023/12/14 09:53:18;;;;;;;31.53;17.30;;;;;;;11.16;67.25;98224.16;5076109;28;20180;-89
2023/12/14 09:55:43;;;;;;;28.70;16.37;;;;;;;11.30;66.94;98221.38;5085460;28;20184;-90
2023/12/14 09:58:11;;;;;;;35.43;18.13;;;;;;;11.36;65.74;98197.34;5073089;28;20169;-90
2023/12/14 10:00:40;;;;;;;39.87;17.40;;;;;;;11.31;65.60;98202.94;5084777;28;20698;-90
2023/12/14 10:03:27;;;;;;;36.37;17.17;;;;;;;11.31;64.90;98204.69;5076037;28;20180;-90
2023/12/14 10:05:55;;;;;;;39.40;18.80;;;;;;;11.22;65.14;98216.66;5093214;28;20156;-89
2023/12/14 10:08:21;;;;;;;45.10;18.77;;;;;;;11.20;65.22;98215.09;5093021;28;20172;-90
2023/12/14 10:10:49;;;;;;;40.43;18.90;;;;;;;11.08;65.14;98204.50;5075354;28;20227;-89
2023/12/14 10:13:15;;;;;;;40.93;17.87;;;;;;;11.16;65.91;98193.50;5064717;28;20191;-90
2023/12/14 10:15:46;;;;;;;38.83;18.33;;;;;;;11.23;66.58;98191.28;5056770;28;20538;-90
2023/12/14 10:18:21;;;;;;;41.87;18.07;;;;;;;11.17;66.12;98194.31;5059064;28;20550;-90
2023/12/14 10:20:47;;;;;;;35.90;18.53;;;;;;;11.09;66.44;98197.50;5106603;28;20202;-89
2023/12/14 10:23:13;;;;;;;39.63;18.60;;;;;;;11.05;67.46;98193.41;5084687;28;20184;-89
2023/12/14 10:25:39;;;;;;;42.07;18.20;;;;;;;11.14;67.06;98184.06;5093181;28;20173;-90
2023/12/14 10:28:07;;;;;;;39.23;19.00;;;;;;;11.24;67.38;98174.63;5093163;28;20263;-89
2023/12/14 10:30:35;;;;;;;41.80;18.90;;;;;;;11.40;67.22;98167.34;5075442;28;20668;-90
2023/12/14 10:33:01;;;;;;;39.70;20.17;;;;;;;11.37;66.96;98154.44;5075014;28;20547;-90
2023/12/14 10:35:28;;;;;;;40.63;19.27;;;;;;;11.49;66.32;98146.53;5093084;28;20241;-89
2023/12/14 10:37:58;;;;;;;51.80;22.03;;;;;;;11.54;66.69;98156.69;5100141;28;20200;-91
2023/12/14 10:40:26;;;;;;;47.80;19.67;;;;;;;11.61;66.68;98158.75;5098685;28;20690;-90
2023/12/14 10:42:55;;;;;;;38.87;19.97;;;;;;;11.70;65.92;98145.00;5075333;28;20176;-90
2023/12/14 10:45:29;;;;;;;44.77;21.43;;;;;;;11.79;65.79;98146.13;5093059;28;20204;-91
2023/12/14 10:47:58;;;;;;;41.27;18.77;;;;;;;11.90;65.52;98134.81;5093497;28;20171;-91
2023/12/14 10:50:29;;;;;;;41.10;19.60;;;;;;;11.97;64.64;98129.00;5097684;28;20659;-90
2023/12/14 10:52:57;;;;;;;42.93;19.53;;;;;;;11.93;64.38;98130.19;5093785;28;20180;-90
2023/12/14 10:55:41;;;;;;;42.07;20.33;;;;;;;11.93;64.47;98131.97;5092953;28;20245;-89
2023/12/14 10:58:08;;;;;;;40.93;18.83;;;;;;;11.78;64.78;98133.09;5093072;28;20396;-91
2023/12/14 11:00:36;;;;;;;45.70;19.23;;;;;;;11.88;64.87;98116.56;5075182;28;20181;-90
2023/12/14 11:03:05;;;;;;;36.83;19.57;;;;;;;12.01;64.24;98121.72;5092992;28;20205;-90
2023/12/14 11:05:34;;;;;;;40.57;19.70;;;;;;;11.96;63.95;98116.81;5075046;28;20177;-90
2023/12/14 11:08:11;;;;;;;39.63;19.17;;;;;;;11.83;64.04;98110.81;5074990;28;20738;-91
2023/12/14 11:10:41;;;;;;;39.00;19.17;;;;;;;11.85;64.18;98103.66;5076021;28;20531;-91
2023/12/14 11:13:10;;;;;;;34.17;18.13;;;;;;;11.69;64.71;98093.44;5078407;28;20181;-90
2023/12/14 11:15:38;;;;;;;41.40;18.87;;;;;;;11.64;65.03;98100.78;5078707;28;20188;-90
2023/12/14 11:18:12;;;;;;;37.90;19.83;;;;;;;11.55;65.81;98108.50;5106369;28;20254;-89
2023/12/14 11:21:00;;;;;;;43.17;19.37;;;;;;;11.62;66.21;98107.09;5116841;28;20191;-90
2023/12/14 11:23:32;;;;;;;38.13;18.93;;;;;;;11.75;66.40;98113.16;5098661;28;20183;-90
2023/12/14 11:26:21;;;;;;;36.67;17.50;;;;;;;11.76;64.77;98111.38;5116941;28;20169;-90
2023/12/14 11:28:48;;;;;;;37.77;20.03;;;;;;;11.62;65.68;98115.81;5098542;28;20183;-89